Time;durP1;ratioP1;P1;durP2;ratioP2;P2;SDS_P1;SDS_P2;PMS_P1;PMS_P2;Temp;Humidity;BMP_temperature;BMP_pressure;BME280_temperature;BME280_humidity;BME280_pressure;Samples;Min_cycle;Max_cycle;Signal;HPM_P1;HPM_P2
2021/10/07 00:00:41;;;;;;;;;0.00;0.00;;;;;13.50;63.45;102253.25;5083752;27;45510;-77
2021/10/07 00:03:07;;;;;;;;;0.00;0.00;;;;;13.46;63.37;102247.88;5082484;27;45500;-77
2021/10/07 00:05:34;;;;;;;;;0.00;0.00;;;;;13.40;63.57;102248.63;5083473;27;45422;-76
2021/10/07 00:07:59;;;;;;;;;0.00;0.00;;;;;13.28;63.65;102234.47;5082118;27;46524;-76
2021/10/07 00:10:25;;;;;;;;;0.00;0.00;;;;;13.43;63.41;102267.91;5082148;28;45450;-76
2021/10/07 00:12:50;;;;;;;;;0.00;0.00;;;;;13.27;63.35;102252.72;5067317;28;45521;-76
2021/10/07 00:15:16;;;;;;;;;0.00;0.00;;;;;13.40;63.75;102283.53;5062202;28;45291;-76
2021/10/07 00:17:41;;;;;;;;;1.00;0.00;;;;;13.39;63.68;102279.13;5061697;28;47430;-75
2021/10/07 00:20:09;;;;;;;;;0.00;0.00;;;;;13.36;63.83;102278.19;5061497;28;45371;-76
2021/10/07 00:22:35;;;;;;;;;0.00;0.00;;;;;13.27;63.88;102268.41;5061839;28;45467;-76
2021/10/07 00:25:00;;;;;;;;;0.00;0.00;;;;;13.11;63.39;102254.97;5063273;28;45300;-76
2021/10/07 00:27:25;;;;;;;;;0.00;0.00;;;;;13.17;63.81;102262.97;5062911;28;45777;-76
2021/10/07 00:29:54;;;;;;;;;0.00;0.00;;;;;13.21;63.76;102265.66;5061192;28;45566;-76
2021/10/07 00:32:23;;;;;;;;;0.00;0.00;;;;;13.20;63.90;102259.53;5063067;28;45473;-76
2021/10/07 00:40:08;;;;;;;;;0.00;0.00;;;;;13.21;64.08;102278.72;5062566;28;45381;-76
2021/10/07 00:42:34;;;;;;;;;0.00;0.00;;;;;13.15;64.03;102271.63;5062828;28;45690;-76
2021/10/07 00:44:59;;;;;;;;;0.00;0.00;;;;;13.13;64.43;102270.72;5061408;28;45544;-77
2021/10/07 00:47:25;;;;;;;;;0.50;0.50;;;;;13.11;64.18;102269.81;5062825;28;46980;-78
2021/10/07 00:49:50;;;;;;;;;0.00;0.00;;;;;13.16;64.22;102287.38;5060835;28;45656;-78
2021/10/07 00:52:18;;;;;;;;;0.00;0.00;;;;;13.19;64.20;102283.94;5062871;28;45322;-77
2021/10/07 00:54:49;;;;;;;;;0.00;0.00;;;;;13.09;64.60;102281.94;5061612;28;45311;-77
2021/10/07 00:57:19;;;;;;;;;0.00;0.00;;;;;13.18;64.54;102296.09;5078504;28;46343;-77
2021/10/07 00:59:45;;;;;;;;;0.00;0.00;;;;;13.12;64.47;102287.25;5082614;27;45346;-75
2021/10/07 01:02:11;;;;;;;;;0.00;0.00;;;;;13.01;64.25;102268.69;5082511;28;45338;-74
2021/10/07 01:04:36;;;;;;;;;0.00;0.00;;;;;12.95;64.34;102260.75;5081076;28;45491;-74
2021/10/07 01:07:04;;;;;;;;;0.00;0.00;;;;;13.05;64.63;102276.66;5081382;28;47380;-75
2021/10/07 01:09:30;;;;;;;;;0.00;0.00;;;;;13.11;64.42;102286.34;5082593;27;45294;-75
2021/10/07 01:11:57;;;;;;;;;0.00;0.00;;;;;13.05;64.88;102287.09;5074049;28;45300;-74
2021/10/07 01:14:54;;;;;;;;;1.00;1.00;;;;;12.96;64.42;102294.75;5062381;28;45315;-74
2021/10/07 01:17:28;;;;;;;;;0.00;0.00;;;;;12.75;64.86;102259.41;5053657;28;46228;-74
2021/10/07 01:19:55;;;;;;;;;0.00;0.00;;;;;12.91;65.03;102285.91;5061111;28;45342;-75
2021/10/07 01:22:22;;;;;;;;;0.00;0.00;;;;;12.78;65.10;102272.53;5060340;28;45374;-75
2021/10/07 01:24:49;;;;;;;;;0.00;0.00;;;;;12.64;65.32;102248.69;5062217;28;45342;-75
2021/10/07 01:27:15;;;;;;;;;0.00;0.00;;;;;12.75;65.29;102261.13;5060541;28;47277;-75
2021/10/07 01:29:41;;;;;;;;;0.00;0.00;;;;;12.91;65.35;102288.53;5060270;28;45359;-75
2021/10/07 01:32:08;;;;;;;;;0.00;0.00;;;;;12.93;65.50;102290.31;5061836;28;45290;-75
2021/10/07 01:34:35;;;;;;;;;0.00;0.00;;;;;12.93;65.48;102292.94;5061674;28;45393;-75
2021/10/07 01:37:01;;;;;;;;;0.00;0.00;;;;;12.84;65.31;102274.44;5061219;28;45465;-75
2021/10/07 01:39:27;;;;;;;;;0.00;0.00;;;;;12.85;65.56;102281.41;5061152;28;45413;-74
2021/10/07 01:41:53;;;;;;;;;0.00;0.00;;;;;12.86;65.59;102277.09;5060528;28;45394;-74
2021/10/07 01:44:21;;;;;;;;;0.00;0.00;;;;;12.83;65.23;102275.25;5062030;28;45302;-75
2021/10/07 01:46:47;;;;;;;;;0.00;0.00;;;;;12.94;65.00;102291.22;5060355;28;46179;-75
2021/10/07 01:49:12;;;;;;;;;0.00;0.00;;;;;12.95;65.36;102284.25;5071027;28;45697;-74
2021/10/07 01:51:38;;;;;;;;;0.00;0.00;;;;;12.96;65.36;102291.25;5082113;27;45420;-75
2021/10/07 01:54:04;;;;;;;;;0.00;0.00;;;;;12.70;65.34;102241.84;5082177;28;45424;-75
2021/10/07 01:56:30;;;;;;;;;0.00;0.00;;;;;12.91;65.41;102281.56;5080592;28;47340;-74
2021/10/07 01:58:57;;;;;;;;;0.50;0.00;;;;;12.90;65.50;102276.31;5080399;28;45862;-75
2021/10/07 02:01:22;;;;;;;;;0.00;0.00;;;;;12.64;65.47;102235.63;5074163;27;45360;-75
2021/10/07 02:03:48;;;;;;;;;0.00;0.00;;;;;12.81;65.61;102263.91;5064728;28;45362;-74
2021/10/07 02:06:13;;;;;;;;;0.00;0.00;;;;;12.87;65.69;102279.75;5081288;27;45448;-75
2021/10/07 02:08:39;;;;;;;;;0.50;0.00;;;;;12.92;65.70;102285.94;5081507;27;45349;-75
2021/10/07 02:11:04;;;;;;;;;0.00;0.00;;;;;12.85;65.59;102278.81;5080533;27;45314;-75
2021/10/07 02:13:30;;;;;;;;;0.00;0.00;;;;;12.80;65.86;102265.63;5060565;28;45292;-77
2021/10/07 02:15:55;;;;;;;;;0.00;0.00;;;;;12.89;65.75;102272.81;5061176;28;45781;-77
2021/10/07 02:18:21;;;;;;;;;0.00;0.00;;;;;12.93;65.28;102279.00;5059891;28;45389;-75
2021/10/07 02:20:46;;;;;;;;;0.00;0.00;;;;;12.77;65.97;102252.47;5059936;28;45388;-76
2021/10/07 02:23:11;;;;;;;;;0.25;0.00;;;;;12.70;66.10;102242.72;5061556;28;45330;-76
2021/10/07 02:25:37;;;;;;;;;1.00;1.00;;;;;12.81;65.94;102269.13;5061087;28;45507;-76
2021/10/07 02:28:03;;;;;;;;;0.00;0.00;;;;;12.78;65.93;102258.59;5059846;28;45391;-76
2021/10/07 02:30:28;;;;;;;;;0.00;0.00;;;;;12.78;65.89;102258.59;5059918;28;45410;-76
2021/10/07 02:32:54;;;;;;;;;0.00;0.00;;;;;12.54;65.87;102218.88;5064077;28;45719;-75
2021/10/07 02:35:19;;;;;;;;;0.00;0.00;;;;;12.82;66.07;102249.09;5063306;28;46694;-76
2021/10/07 02:37:46;;;;;;;;;0.00;0.00;;;;;12.77;65.92;102236.81;5064650;28;45450;-76
2021/10/07 02:40:13;;;;;;;;;0.00;0.00;;;;;12.78;65.85;102253.38;5063354;28;45405;-75
2021/10/07 02:42:39;;;;;;;;;0.00;0.00;;;;;12.78;65.89;102243.78;5064990;28;45514;-75
2021/10/07 02:45:06;;;;;;;;;0.00;0.00;;;;;12.83;65.73;102249.13;5064555;28;46484;-76
2021/10/07 02:47:31;;;;;;;;;0.00;0.00;;;;;12.78;66.23;102256.00;5063130;28;45456;-76
2021/10/07 02:49:57;;;;;;;;;0.00;0.00;;;;;12.63;65.87;102252.16;5064011;28;45343;-76
2021/10/07 02:52:22;;;;;;;;;0.00;0.00;;;;;12.41;66.30;102254.22;5065013;28;45337;-76
2021/10/07 02:54:47;;;;;;;;;0.00;0.00;;;;;12.41;66.77;102272.50;5064313;28;45550;-76
2021/10/07 02:57:13;;;;;;;;;0.00;0.00;;;;;12.31;66.40;102260.06;5080386;28;45400;-75
2021/10/07 02:59:38;;;;;;;;;0.00;0.00;;;;;12.18;66.48;102255.34;5083665;28;45389;-76
2021/10/07 03:02:03;;;;;;;;;0.00;0.00;;;;;12.19;67.39;102272.81;5084578;27;45461;-75
2021/10/07 03:04:29;;;;;;;;;0.00;0.00;;;;;11.88;67.43;102236.28;5082597;28;46991;-75
2021/10/07 03:06:54;;;;;;;;;0.00;0.00;;;;;11.90;67.47;102258.97;5084599;27;45485;-75
2021/10/07 03:09:19;;;;;;;;;0.00;0.00;;;;;12.00;68.10;102280.97;5084605;27;45601;-76
2021/10/07 03:11:45;;;;;;;;;0.00;0.00;;;;;11.93;67.85;102276.44;5077742;27;45357;-76
2021/10/07 03:14:10;;;;;;;;;0.00;0.00;;;;;11.93;67.60;102270.31;5063851;28;45344;-75
2021/10/07 03:16:36;;;;;;;;;0.00;0.00;;;;;11.64;67.93;102225.19;5062347;28;45458;-75
2021/10/07 03:19:01;;;;;;;;;0.00;0.00;;;;;11.88;68.10;102276.31;5062365;28;45326;-75
2021/10/07 03:21:26;;;;;;;;;0.00;0.00;;;;;11.55;68.24;102229.28;5062765;28;45575;-75
2021/10/07 03:23:52;;;;;;;;;0.00;0.00;;;;;11.86;68.20;102288.44;5063597;28;46386;-76
2021/10/07 03:26:17;;;;;;;;;0.00;0.00;;;;;11.77;68.42;102262.94;5062236;28;46167;-75
2021/10/07 03:28:42;;;;;;;;;0.50;0.00;;;;;11.88;68.10;102263.25;5063757;28;45666;-76
2021/10/07 03:31:08;;;;;;;;;0.00;0.00;;;;;11.92;68.26;102269.47;5062366;28;45438;-77
2021/10/07 03:33:33;;;;;;;;;0.00;0.00;;;;;11.93;68.15;102276.44;5061580;28;47789;-76
2021/10/07 03:35:59;;;;;;;;;0.00;0.00;;;;;12.00;68.58;102285.31;5061748;28;45348;-76
2021/10/07 03:38:25;;;;;;;;;0.00;0.00;;;;;12.03;68.16;102274.94;5063585;28;45834;-76
2021/10/07 03:40:51;;;;;;;;;0.00;0.00;;;;;12.09;68.28;102292.53;5063855;28;45727;-76
2021/10/07 03:43:16;;;;;;;;;0.00;0.00;;;;;12.02;68.32;102286.25;5063204;28;45346;-76
2021/10/07 03:45:41;;;;;;;;;0.00;0.00;;;;;11.98;67.96;102273.97;5062071;28;45415;-75
2021/10/07 03:48:07;;;;;;;;;0.00;0.00;;;;;11.94;68.11;102283.41;5066512;28;45318;-76
2021/10/07 03:50:32;;;;;;;;;0.00;0.00;;;;;12.00;67.99;102286.19;5082278;28;45400;-76
2021/10/07 03:52:57;;;;;;;;;0.00;0.00;;;;;12.05;68.52;102283.72;5082016;28;47016;-75
2021/10/07 03:55:23;;;;;;;;;0.00;0.00;;;;;11.98;68.14;102273.97;5082377;28;45819;-76
2021/10/07 03:57:48;;;;;;;;;0.50;0.50;;;;;11.87;67.91;102269.31;5082358;28;45734;-75
2021/10/07 04:00:13;;;;;;;;;0.00;0.00;;;;;11.98;68.29;102300.06;5083952;27;45754;-76
2021/10/07 04:02:39;;;;;;;;;0.00;0.00;;;;;11.77;68.59;102278.59;5082744;27;45452;-76
2021/10/07 04:05:05;;;;;;;;;0.00;0.00;;;;;11.76;68.22;102287.28;5081077;28;45379;-76
2021/10/07 04:07:30;;;;;;;;;0.00;0.00;;;;;11.82;68.48;102303.97;5082229;28;45434;-76
2021/10/07 04:09:56;;;;;;;;;0.00;0.00;;;;;11.38;68.67;102246.22;5083506;27;45512;-76
2021/10/07 04:12:21;;;;;;;;;0.00;0.00;;;;;11.73;69.27;102320.25;5071162;27;46277;-76
2021/10/07 04:14:46;;;;;;;;;0.00;0.00;;;;;11.59;69.06;102296.34;5063039;28;45235;-75
2021/10/07 04:17:12;;;;;;;;;0.00;0.00;;;;;11.71;69.14;102301.03;5063096;28;46044;-76
2021/10/07 04:19:37;;;;;;;;;0.00;0.00;;;;;11.61;68.70;102279.03;5062823;28;45267;-76
2021/10/07 04:22:03;;;;;;;;;0.00;0.00;;;;;11.65;68.85;102293.91;5061320;28;47576;-76
2021/10/07 04:24:28;;;;;;;;;0.00;0.00;;;;;11.60;69.20;102303.31;5061786;28;45308;-76
2021/10/07 04:26:53;;;;;;;;;0.00;0.00;;;;;11.32;69.04;102279.91;5062759;28;45414;-76
2021/10/07 04:29:19;;;;;;;;;0.50;0.00;;;;;11.38;69.16;102287.94;5063180;28;45318;-76
2021/10/07 04:31:44;;;;;;;;;0.00;0.00;;;;;11.44;69.10;102288.94;5062437;28;45373;-76
2021/10/07 04:34:10;;;;;;;;;0.00;0.00;;;;;11.30;68.95;102278.13;5062070;28;45414;-76
2021/10/07 04:36:36;;;;;;;;;0.00;0.00;;;;;11.42;69.19;102303.69;5061531;28;45428;-76
2021/10/07 04:39:01;;;;;;;;;0.00;0.00;;;;;11.33;69.68;102304.28;5062981;28;45424;-76
2021/10/07 04:41:26;;;;;;;;;0.00;0.00;;;;;11.25;69.87;102278.88;5061097;28;47399;-76
2021/10/07 04:43:52;;;;;;;;;0.00;0.00;;;;;11.31;69.50;102291.19;5062056;28;45351;-75
2021/10/07 04:46:21;;;;;;;;;0.00;0.00;;;;;11.36;69.91;102309.59;5061171;28;45598;-77
2021/10/07 04:48:47;;;;;;;;;0.75;0.75;;;;;11.40;69.40;102320.13;5061244;28;45404;-76
2021/10/07 04:51:13;;;;;;;;;0.00;0.00;;;;;11.36;70.13;102309.59;5062173;28;45436;-76
2021/10/07 04:53:38;;;;;;;;;0.00;0.00;;;;;11.24;69.91;102287.50;5062060;28;45370;-76
2021/10/07 04:56:04;;;;;;;;;1.75;0.00;;;;;11.39;70.00;102296.63;5067601;28;45230;-76
2021/10/07 04:58:29;;;;;;;;;0.00;0.00;;;;;11.36;69.74;102276.56;5082173;27;45599;-75
2021/10/07 05:00:54;;;;;;;;;0.00;0.00;;;;;11.51;69.80;102297.00;5082358;27;46142;-77
2021/10/07 05:03:20;;;;;;;;;0.00;0.00;;;;;11.61;69.67;102307.72;5068036;27;45423;-76
2021/10/07 05:05:45;;;;;;;;;0.00;0.00;;;;;11.37;69.41;102259.22;5061950;28;45402;-76
2021/10/07 05:08:10;;;;;;;;;0.00;0.00;;;;;11.70;69.36;102305.34;5062267;28;45215;-76
2021/10/07 05:10:38;;;;;;;;;2.25;0.00;;;;;11.82;69.42;102320.47;5060593;28;48331;-76
2021/10/07 05:13:03;;;;;;;;;0.00;0.00;;;;;11.65;68.99;102288.69;5079604;28;45531;-75
2021/10/07 05:15:28;;;;;;;;;1.50;0.00;;;;;11.76;68.69;102313.38;5080289;28;45305;-76
2021/10/07 05:17:54;;;;;;;;;0.00;0.00;;;;;11.66;69.05;102325.28;5080475;27;45454;-75
2021/10/07 05:20:20;;;;;;;;;0.75;0.00;;;;;11.34;69.12;102279.97;5081847;27;46324;-78
2021/10/07 05:22:46;;;;;;;;;0.00;0.00;;;;;11.70;69.39;102333.19;5081645;28;45761;-77
2021/10/07 05:25:11;;;;;;;;;0.00;0.00;;;;;11.78;69.16;102339.50;5080125;28;45324;-77
2021/10/07 05:27:37;;;;;;;;;0.00;0.00;;;;;11.68;68.94;102322.72;5080692;28;45623;-76
2021/10/07 05:30:05;;;;;;;;;1.75;0.00;;;;;11.68;69.08;102327.94;5081431;27;45408;-77
2021/10/07 05:32:30;;;;;;;;;0.00;0.00;;;;;11.65;68.97;102327.81;5080371;28;45349;-76
2021/10/07 05:34:56;;;;;;;;;0.00;0.00;;;;;11.52;68.90;102324.84;5081609;27;45697;-75
2021/10/07 05:37:22;;;;;;;;;0.00;0.00;;;;;11.29;68.83;102300.69;5080368;28;45651;-78
2021/10/07 05:39:47;;;;;;;;;2.00;1.00;;;;;11.34;69.21;102306.94;5079862;28;47798;-76
2021/10/07 05:42:12;;;;;;;;;1.25;0.00;;;;;11.35;69.45;102321.72;5080526;27;45408;-77
2021/10/07 05:44:38;;;;;;;;;0.00;0.00;;;;;11.32;69.31;102321.63;5079969;28;45389;-76
2021/10/07 05:47:04;;;;;;;;;0.00;0.00;;;;;11.30;69.58;102333.72;5080053;27;45342;-75
2021/10/07 05:49:29;;;;;;;;;0.00;0.00;;;;;11.39;69.32;102346.16;5080387;27;46633;-75
2021/10/07 05:51:55;;;;;;;;;0.00;0.00;;;;;11.38;69.60;102347.91;5080918;27;45602;-77
2021/10/07 05:54:21;;;;;;;;;0.00;0.00;;;;;11.27;69.77;102341.44;5081164;27;45335;-77
2021/10/07 05:56:47;;;;;;;;;1.50;0.25;;;;;11.26;69.62;102347.50;5081383;27;45307;-77
2021/10/07 05:59:12;;;;;;;;;1.00;0.00;;;;;11.33;69.62;102354.69;5080521;27;45832;-77
2021/10/07 06:01:38;;;;;;;;;0.00;0.00;;;;;11.10;70.19;102318.38;5067655;27;45494;-76
2021/10/07 06:04:03;;;;;;;;;0.00;0.00;;;;;11.22;69.89;102343.03;5077823;27;45476;-77
2021/10/07 06:06:29;;;;;;;;;0.00;0.00;;;;;11.34;69.88;102366.00;5075341;28;45181;-77
2021/10/07 06:08:55;;;;;;;;;0.00;0.00;;;;;11.30;69.83;102356.31;5064561;28;46445;-74
2021/10/07 06:11:20;;;;;;;;;2.50;0.00;;;;;11.19;69.70;102338.63;5069845;28;45486;-75
2021/10/07 06:13:46;;;;;;;;;0.00;0.00;;;;;11.22;69.75;102354.34;5065418;28;45453;-75
2021/10/07 06:16:11;;;;;;;;;0.25;0.25;;;;;11.12;70.31;102352.28;5075916;28;45391;-75
2021/10/07 06:18:37;;;;;;;;;0.25;0.25;;;;;11.20;70.13;102365.56;5065705;27;47085;-75
2021/10/07 06:21:03;;;;;;;;;0.25;0.00;;;;;11.19;70.26;102363.78;5065602;28;45512;-75
2021/10/07 06:23:29;;;;;;;;;0.75;0.25;;;;;11.18;70.34;102352.47;5082967;28;45393;-75
2021/10/07 06:25:54;;;;;;;;;1.50;0.50;;;;;11.19;69.76;102361.19;5083072;27;45423;-76
2021/10/07 06:28:20;;;;;;;;;0.00;0.00;;;;;11.29;70.07;102373.69;5082582;28;47615;-76
2021/10/07 06:30:45;;;;;;;;;0.50;0.50;;;;;11.32;70.13;102362.44;5080704;28;45425;-76
2021/10/07 06:33:11;;;;;;;;;0.00;0.00;;;;;11.26;69.69;102358.84;5068375;28;45561;-76
2021/10/07 06:35:36;;;;;;;;;1.00;1.00;;;;;11.43;69.93;102376.72;5064062;28;45374;-75
2021/10/07 06:38:02;;;;;;;;;1.25;1.25;;;;;11.35;69.64;102355.63;5066951;28;46490;-76
2021/10/07 06:40:28;;;;;;;;;0.00;0.00;;;;;11.38;70.09;102336.56;5081423;28;45500;-75
2021/10/07 06:42:53;;;;;;;;;0.00;0.00;;;;;11.71;69.83;102374.06;5078342;28;45348;-74
2021/10/07 06:45:18;;;;;;;;;0.00;0.00;;;;;11.81;69.94;102377.84;5062445;28;45465;-74
2021/10/07 06:47:44;;;;;;;;;0.00;0.00;;;;;11.75;69.63;102344.63;5062313;28;47122;-74
2021/10/07 06:50:11;;;;;;;;;0.00;0.00;;;;;11.94;68.96;102364.31;5063002;28;45263;-74
2021/10/07 06:52:39;;;;;;;;;6.25;0.00;;;;;11.97;68.90;102367.03;5062191;28;45351;-73
2021/10/07 06:55:05;;;;;;;;;0.75;0.75;;;;;12.07;68.54;102383.84;5062116;28;45485;-76
2021/10/07 06:57:31;;;;;;;;;0.00;0.00;;;;;12.03;68.85;102376.75;5089994;27;48139;-75
2021/10/07 06:59:56;;;;;;;;;0.75;0.75;;;;;12.06;68.92;102379.44;5069343;28;45442;-75
2021/10/07 07:02:22;;;;;;;;;0.00;0.00;;;;;12.11;68.93;102370.06;5077084;27;45515;-74
2021/10/07 07:04:47;;;;;;;;;0.00;0.00;;;;;12.28;68.52;102385.31;5062701;28;45414;-74
2021/10/07 07:07:12;;;;;;;;;0.75;0.75;;;;;12.27;68.33;102374.00;5079702;28;45365;-79
2021/10/07 07:09:38;;;;;;;;;0.25;0.25;;;;;12.14;68.04;102340.56;5083500;27;45220;-80
2021/10/07 07:12:03;;;;;;;;;0.00;0.00;;;;;12.46;68.15;102391.91;5062560;27;45383;-79
2021/10/07 07:14:29;;;;;;;;;0.00;0.00;;;;;12.20;67.86;102332.00;5064188;28;45418;-77
2021/10/07 07:16:54;;;;;;;;;0.00;0.00;;;;;12.41;67.73;102363.91;5080853;28;47030;-77
2021/10/07 07:19:19;;;;;;;;;1.50;1.50;;;;;12.66;67.91;102400.28;5082936;27;45385;-82
2021/10/07 07:21:45;;;;;;;;;1.00;0.50;;;;;12.63;67.84;102390.63;5083962;27;45433;-78
2021/10/07 07:24:10;;;;;;;;;0.00;0.00;;;;;12.71;67.37;102398.66;5083828;27;45278;-77
2021/10/07 07:26:36;;;;;;;;;0.25;0.00;;;;;12.54;67.44;102354.69;5081213;28;47988;-79
2021/10/07 07:29:03;;;;;;;;;1.00;0.00;;;;;12.93;67.09;102405.31;5083402;27;45444;-79
2021/10/07 07:31:28;;;;;;;;;1.00;1.00;;;;;12.73;66.83;102370.84;5081881;28;45433;-79
2021/10/07 07:33:54;;;;;;;;;0.25;0.00;;;;;12.96;67.19;102398.41;5081911;28;45499;-78
2021/10/07 07:36:22;;;;;;;;;0.50;0.00;;;;;13.07;66.64;102401.31;5081146;28;47549;-80
2021/10/07 07:38:49;;;;;;;;;0.50;0.50;;;;;13.01;66.85;102382.00;5081690;28;46304;-81
2021/10/07 07:41:15;;;;;;;;;0.00;0.00;;;;;13.09;66.28;102384.81;5099528;27;45249;-82
2021/10/07 07:43:41;;;;;;;;;0.75;0.75;;;;;13.29;66.50;102400.06;5083559;27;45361;-77
2021/10/07 07:46:07;;;;;;;;;0.25;0.00;;;;;13.28;66.47;102403.56;5082514;27;46179;-77
2021/10/07 07:48:33;;;;;;;;;0.00;0.00;;;;;13.18;66.21;102377.16;5081244;27;45378;-79
2021/10/07 07:50:59;;;;;;;;;0.00;0.00;;;;;13.27;66.34;102368.69;5082903;27;45426;-76
2021/10/07 07:53:24;;;;;;;;;1.00;1.00;;;;;13.61;66.29;102410.47;5081655;28;45363;-76
2021/10/07 07:55:49;;;;;;;;;0.00;0.00;;;;;13.54;65.94;102388.50;5078275;27;46630;-78
2021/10/07 07:58:17;;;;;;;;;1.25;1.00;;;;;13.57;65.52;102373.72;5078743;28;45610;-80
2021/10/07 08:00:42;;;;;;;;;0.00;0.00;;;;;13.93;65.45;102412.00;5082996;27;45590;-78
2021/10/07 08:03:08;;;;;;;;;0.00;0.00;;;;;14.02;65.65;102421.78;5081072;28;45542;-79
2021/10/07 08:05:34;;;;;;;;;0.00;0.00;;;;;13.98;65.26;102401.63;5078665;27;46581;-78
2021/10/07 08:08:07;;;;;;;;;0.50;0.50;;;;;13.79;64.90;102373.31;5085614;27;45334;-77
2021/10/07 08:10:34;;;;;;;;;0.00;0.00;;;;;13.82;64.99;102362.06;5078022;28;45469;-78
2021/10/07 08:13:00;;;;;;;;;0.00;0.00;;;;;14.21;64.73;102406.47;5072127;28;45610;-77
2021/10/07 08:15:26;;;;;;;;;0.50;0.00;;;;;14.31;64.48;102403.19;5072730;27;45455;-78
2021/10/07 08:17:52;;;;;;;;;0.00;0.00;;;;;14.08;64.60;102358.22;5067085;28;45449;-76
2021/10/07 08:20:19;;;;;;;;;2.00;0.00;;;;;14.43;64.58;102408.66;5060768;28;45470;-76
2021/10/07 08:22:47;;;;;;;;;0.00;0.00;;;;;14.66;64.33;102425.66;5062629;28;45529;-77
2021/10/07 08:25:14;;;;;;;;;0.00;0.00;;;;;14.74;64.04;102416.22;5062207;28;47465;-76
2021/10/07 08:27:39;;;;;;;;;1.00;1.00;;;;;14.66;63.50;102384.63;5060852;28;45825;-77
2021/10/07 08:30:06;;;;;;;;;2.00;0.00;;;;;15.06;63.75;102438.63;5059448;28;45412;-77
2021/10/07 08:32:32;;;;;;;;;0.00;0.00;;;;;14.92;63.03;102396.47;5062230;28;45428;-77
2021/10/07 08:34:57;;;;;;;;;0.00;0.00;;;;;14.98;63.08;102377.31;5060212;28;47107;-79
2021/10/07 08:37:23;;;;;;;;;0.00;0.00;;;;;15.27;62.69;102406.66;5060541;28;45374;-77
2021/10/07 08:39:48;;;;;;;;;0.00;0.00;;;;;15.31;62.46;102408.44;5061810;28;45922;-77
2021/10/07 08:42:15;;;;;;;;;0.75;0.75;;;;;15.57;62.37;102446.47;5070320;28;45449;-77
2021/10/07 08:44:43;;;;;;;;;0.00;0.00;;;;;15.26;61.94;102390.88;5081646;27;45712;-74
2021/10/07 08:47:08;;;;;;;;;0.75;0.00;;;;;15.54;61.82;102438.53;5080447;27;45427;-75
2021/10/07 08:49:38;;;;;;;;;0.25;0.25;;;;;15.57;61.79;102442.09;5080255;27;45581;-75
2021/10/07 08:52:04;;;;;;;;;0.50;0.50;;;;;15.63;62.11;102440.41;5080734;27;45693;-75
2021/10/07 08:54:33;;;;;;;;;0.75;0.75;;;;;15.68;62.11;102421.25;5081408;27;46805;-78
2021/10/07 08:56:58;;;;;;;;;1.00;0.25;;;;;15.91;61.85;102428.56;5071717;27;45382;-79
2021/10/07 08:59:24;;;;;;;;;2.50;2.50;;;;;15.98;61.59;102418.19;5079624;28;45369;-77
2021/10/07 09:01:50;;;;;;;;;2.00;0.00;;;;;15.89;61.01;102393.50;5079094;28;45492;-80
2021/10/07 09:04:15;;;;;;;;;0.00;0.00;;;;;16.20;61.46;102429.81;5078394;27;47146;-78
2021/10/07 09:06:45;;;;;;;;;0.00;0.00;;;;;16.36;61.36;102440.50;5078974;28;45408;-78
2021/10/07 09:09:11;;;;;;;;;1.00;0.25;;;;;16.38;60.91;102437.03;5074712;28;45350;-79
2021/10/07 09:11:36;;;;;;;;;0.50;0.50;;;;;16.42;61.13;102423.06;5075509;27;45285;-78
2021/10/07 09:14:04;;;;;;;;;0.00;0.00;;;;;16.65;60.46;102446.09;5063221;28;47466;-78
2021/10/07 09:16:44;;;;;;;;;0.00;0.00;;;;;16.54;60.75;102424.94;5078863;28;45290;-79
2021/10/07 09:19:15;;;;;;;;;0.00;0.00;;;;;16.54;60.48;102429.34;5074868;27;45304;-85
2021/10/07 09:21:41;;;;;;;;;0.50;0.50;;;;;16.59;59.73;102436.41;5060703;28;45553;-79
2021/10/07 09:24:33;;;;;;;;;2.00;0.75;;;;;16.40;59.99;102395.00;5060806;28;45465;-79
2021/10/07 09:27:01;;;;;;;;;0.25;0.25;;;;;16.49;59.79;102423.13;5066781;28;45489;-79
2021/10/07 09:29:35;;;;;;;;;0.00;0.00;;;;;16.53;60.68;102433.69;5068360;28;45272;-77
2021/10/07 09:32:01;;;;;;;;;2.00;0.50;;;;;16.40;60.74;102401.16;5061348;28;45358;-80
2021/10/07 09:34:45;;;;;;;;;0.25;0.25;;;;;16.75;60.22;102433.91;5060474;28;45678;-78
2021/10/07 09:37:22;;;;;;;;;0.00;0.00;;;;;16.80;59.92;102423.44;5064761;28;45299;-78
2021/10/07 09:39:53;;;;;;;;;0.00;0.00;;;;;16.76;59.86;102411.13;5059033;28;45488;-78
2021/10/07 09:42:22;;;;;;;;;0.00;0.00;;;;;16.66;59.80;102392.63;5061033;28;45605;-78
2021/10/07 09:45:13;;;;;;;;;1.00;1.00;;;;;16.98;59.86;102428.00;5078551;28;47272;-79
2021/10/07 09:47:41;;;;;;;;;0.00;0.00;;;;;16.81;59.41;102404.16;5062359;28;45409;-78
2021/10/07 09:50:14;;;;;;;;;0.00;0.00;;;;;16.84;59.83;102399.81;5060028;28;45429;-79
2021/10/07 09:52:42;;;;;;;;;0.25;0.25;;;;;16.96;59.30;102429.72;5077341;28;45437;-78
2021/10/07 09:55:08;;;;;;;;;0.25;0.00;;;;;16.89;59.60;102418.28;5078944;28;47204;-78
2021/10/07 09:57:34;;;;;;;;;0.00;0.00;;;;;16.75;59.99;102397.09;5066219;27;45373;-78
2021/10/07 10:00:02;;;;;;;;;1.00;0.00;;;;;16.49;59.46;102360.03;5074711;27;45351;-79
2021/10/07 10:02:27;;;;;;;;;0.75;0.75;;;;;16.89;59.57;102426.16;5059739;28;45483;-78
2021/10/07 10:04:54;;;;;;;;;0.00;0.00;;;;;16.83;59.55;102418.22;5059259;28;45387;-79
2021/10/07 10:07:20;;;;;;;;;0.00;0.00;;;;;16.69;59.47;102392.66;5067280;28;45325;-79
2021/10/07 10:09:46;;;;;;;;;0.00;0.00;;;;;16.83;59.90;102419.09;5062235;27;45450;-79
2021/10/07 10:12:11;;;;;;;;;1.25;0.00;;;;;16.59;59.89;102394.34;5059690;28;45643;-79
2021/10/07 10:14:37;;;;;;;;;0.00;0.00;;;;;16.77;59.73;102415.53;5059634;28;46426;-78
2021/10/07 10:17:02;;;;;;;;;0.00;0.00;;;;;16.78;60.14;102402.38;5071547;28;45520;-78
2021/10/07 10:19:31;;;;;;;;;0.00;0.00;;;;;16.88;59.82;102399.84;5081599;27;45431;-80
2021/10/07 10:21:57;;;;;;;;;0.25;0.25;;;;;16.80;59.51;102387.53;5059024;28;45498;-82
2021/10/07 10:24:23;;;;;;;;;0.50;0.50;;;;;16.99;59.42;102415.75;5057752;28;48115;-81
2021/10/07 10:27:01;;;;;;;;;0.00;0.00;;;;;16.89;59.14;102393.72;5057565;28;45405;-82
2021/10/07 10:29:30;;;;;;;;;0.00;0.00;;;;;16.89;58.88;102393.72;5059872;28;45482;-81
2021/10/07 10:31:55;;;;;;;;;0.25;0.00;;;;;17.02;59.02;102415.72;5064412;28;45455;-83
2021/10/07 10:34:22;;;;;;;;;1.75;0.00;;;;;16.94;58.95;102395.50;5059827;28;47037;-81
2021/10/07 10:36:54;;;;;;;;;0.00;0.00;;;;;16.60;58.53;102350.50;5079163;28;45981;-79
2021/10/07 10:39:35;;;;;;;;;0.50;0.50;;;;;17.01;58.92;102427.13;5077814;28;45319;-80
2021/10/07 10:42:07;;;;;;;;;1.00;0.00;;;;;16.92;58.64;102418.31;5066623;27;45416;-79
2021/10/07 10:44:40;;;;;;;;;0.00;0.00;;;;;16.92;58.20;102420.94;5058112;28;46332;-78
2021/10/07 10:47:05;;;;;;;;;0.00;0.00;;;;;16.97;58.84;102424.47;5060012;28;45462;-80
2021/10/07 10:49:46;;;;;;;;;0.50;0.50;;;;;16.92;58.18;102415.69;5078498;28;45372;-80
2021/10/07 10:52:25;;;;;;;;;0.00;0.00;;;;;16.89;57.99;102399.88;5078158;27;45459;-79
2021/10/07 10:55:04;;;;;;;;;0.00;0.00;;;;;16.64;58.04;102351.44;5079495;27;45576;-76
2021/10/07 10:57:36;;;;;;;;;0.00;0.00;;;;;17.10;57.95;102419.38;5067070;28;45286;-76
2021/10/07 11:00:31;;;;;;;;;0.00;0.00;;;;;17.22;57.79;102419.44;5068803;28;45353;-75
2021/10/07 11:03:06;;;;;;;;;0.00;0.00;;;;;17.40;57.19;102415.19;5086012;27;45415;-75
2021/10/07 11:05:32;;;;;;;;;0.00;0.00;;;;;17.50;57.64;102408.25;5076592;28;47140;-76
2021/10/07 11:08:18;;;;;;;;;0.00;0.00;;;;;17.67;57.19;102416.22;5070697;28;45429;-76
2021/10/07 11:10:46;;;;;;;;;0.00;0.00;;;;;17.61;56.37;102371.41;5073891;28;45555;-77
2021/10/07 11:13:16;;;;;;;;;0.00;0.00;;;;;17.84;56.48;102410.19;5075576;27;45527;-78
2021/10/07 11:15:42;;;;;;;;;0.00;0.00;;;;;17.62;56.22;102382.84;5078962;27;45589;-75
2021/10/07 11:18:08;;;;;;;;;0.00;0.00;;;;;17.58;55.99;102372.28;5061579;28;45358;-75
2021/10/07 11:20:34;;;;;;;;;0.00;0.00;;;;;17.79;56.67;102411.91;5061991;28;45331;-79
2021/10/07 11:23:16;;;;;;;;;0.00;0.00;;;;;17.78;55.97;102411.03;5066829;28;45514;-78
2021/10/07 11:25:54;;;;;;;;;0.00;0.00;;;;;17.78;56.36;102400.50;5079612;27;47910;-79
2021/10/07 11:28:30;;;;;;;;;0.00;0.00;;;;;17.52;56.11;102363.50;5081077;28;46329;-77